Terminal Aerodrome Forecast
Issued by NWS

Home | Current Version | Previous Version | Text Only | Print | Product List | Glossary Off
Versions: 1 2 3 4 5 6 7 8 9 10 11 12 13 14

384
FTUS43 KGRB 300520
TAFAUW
TAF
KAUW 300520Z 3006/0106 09005KT P6SM FEW050 SCT200
     FM301500 07010G15KT P6SM SCT040 BKN150
     FM302200 06010G15KT P6SM VCSH SCT030 BKN100=

USA.gov is the U.S. government's official web portal to all federal, state and local government web resources and services.